createdAt,value
2023-03-06T00:29:37.726Z,547.00
2023-03-06T00:30:37.790Z,543.00
2023-03-06T00:31:37.907Z,544.00
2023-03-06T00:32:38.068Z,553.00
2023-03-06T00:33:38.038Z,552.00
2023-03-06T00:43:38.862Z,550.00
2023-03-06T02:31:47.860Z,541.00
2023-03-06T02:37:47.785Z,544.00
2023-03-06T02:38:47.852Z,545.00
2023-03-06T02:39:47.934Z,546.00
2023-03-06T02:40:48.006Z,544.00
2023-03-06T02:41:48.090Z,539.00
2023-03-06T02:42:48.165Z,541.00
2023-03-06T02:43:48.240Z,539.00
2023-03-06T02:44:48.310Z,546.00
2023-03-06T02:45:48.480Z,537.00
2023-03-06T02:46:48.473Z,547.00
2023-03-06T02:47:48.555Z,538.00
2023-03-06T04:46:57.765Z,537.00
2023-03-06T04:47:57.840Z,538.00
2023-03-06T04:48:57.918Z,529.00
2023-03-06T04:49:57.999Z,531.00
2023-03-06T04:50:58.075Z,539.00
2023-03-06T04:51:58.143Z,531.00
2023-03-06T04:52:58.223Z,538.00
2023-03-06T04:53:58.294Z,537.00
2023-03-06T04:54:58.371Z,537.00
2023-03-06T04:55:58.442Z,539.00
2023-03-06T04:56:58.521Z,534.00
2023-03-06T04:57:58.593Z,535.00
2023-03-06T04:58:58.676Z,534.00
2023-03-06T04:59:58.746Z,532.00
2023-03-06T05:00:58.875Z,527.00
2023-03-06T05:01:58.924Z,533.00
2023-03-06T05:02:58.971Z,537.00
2023-03-06T05:03:59.044Z,538.00
2023-03-06T05:04:59.123Z,537.00
2023-03-06T05:05:59.190Z,531.00
2023-03-06T05:06:59.274Z,545.00
2023-03-06T05:07:59.371Z,538.00
2023-03-06T05:08:59.443Z,533.00
2023-03-06T05:09:59.515Z,545.00
2023-03-06T05:10:59.578Z,531.00
2023-03-06T05:11:59.677Z,532.00
2023-03-06T05:12:59.744Z,533.00
2023-03-06T05:13:59.828Z,541.00
2023-03-06T05:14:59.897Z,532.00
2023-03-06T05:15:59.970Z,538.00
2023-03-06T05:17:00.045Z,528.00
2023-03-06T05:18:00.132Z,532.00
2023-03-06T05:19:00.198Z,533.00
2023-03-06T05:20:00.271Z,526.00
2023-03-06T05:21:00.350Z,534.00
2023-03-06T05:22:00.418Z,534.00
2023-03-06T05:23:00.501Z,527.00
2023-03-06T05:24:00.582Z,536.00
2023-03-06T05:25:00.652Z,533.00
2023-03-06T05:26:00.737Z,542.00
2023-03-06T05:27:00.818Z,536.00
2023-03-06T05:28:00.881Z,537.00
2023-03-06T05:29:00.957Z,536.00
2023-03-06T05:30:01.096Z,530.00
2023-03-06T05:31:03.395Z,539.00
2023-03-06T05:32:01.367Z,532.00
2023-03-06T05:33:01.258Z,525.00
2023-03-06T05:34:01.330Z,534.00
2023-03-06T05:35:01.412Z,531.00
2023-03-06T05:36:01.483Z,530.00
2023-03-06T05:37:01.558Z,528.00
2023-03-06T05:38:01.634Z,531.00
2023-03-06T05:39:01.714Z,531.00
2023-03-06T05:40:01.791Z,529.00
2023-03-06T05:41:01.871Z,533.00
2023-03-06T05:42:01.942Z,533.00
2023-03-06T05:43:02.073Z,531.00
2023-03-06T05:44:02.093Z,530.00
2023-03-06T05:45:02.172Z,536.00
2023-03-06T05:46:02.326Z,532.00
2023-03-06T05:47:02.332Z,533.00
2023-03-06T05:48:02.398Z,527.00
2023-03-06T05:49:02.497Z,530.00
2023-03-06T05:50:02.559Z,539.00
2023-03-06T05:51:02.650Z,534.00
2023-03-06T05:52:02.715Z,535.00
2023-03-06T05:53:02.802Z,532.00
2023-03-06T05:54:02.868Z,529.00
2023-03-06T05:55:02.942Z,522.00
2023-03-06T05:56:03.012Z,528.00
2023-03-06T05:57:03.090Z,530.00
2023-03-06T05:58:03.162Z,532.00
2023-03-06T05:59:03.245Z,524.00
2023-03-06T06:00:03.304Z,526.00
2023-03-06T06:01:03.383Z,540.00
2023-03-06T06:02:03.476Z,535.00
2023-03-06T06:03:03.536Z,539.00
2023-03-06T06:04:03.617Z,536.00
2023-03-06T06:05:03.696Z,533.00
2023-03-06T06:06:03.771Z,534.00
2023-03-06T06:07:03.833Z,533.00
2023-03-06T06:08:03.914Z,540.00
2023-03-06T06:09:03.990Z,536.00
2023-03-06T06:10:04.086Z,532.00
2023-03-06T06:11:04.139Z,547.00
2023-03-06T06:12:04.211Z,548.00
2023-03-06T06:13:04.289Z,548.00
2023-03-06T06:14:04.357Z,547.00
2023-03-06T06:15:04.441Z,548.00
2023-03-06T06:16:04.544Z,558.00
2023-03-06T06:17:04.605Z,556.00
2023-03-06T06:18:04.694Z,561.00
2023-03-06T06:19:04.776Z,565.00
2023-03-06T06:20:04.863Z,569.00
2023-03-06T06:21:04.951Z,578.00
2023-03-06T06:22:05.274Z,573.00
2023-03-06T06:23:05.972Z,586.00
2023-03-06T06:24:05.229Z,589.00
2023-03-06T06:25:05.324Z,600.00
2023-03-06T06:26:05.396Z,619.00
2023-03-06T06:27:05.488Z,624.00
2023-03-06T06:28:05.571Z,633.00
2023-03-06T06:29:05.727Z,648.00
2023-03-06T06:30:05.793Z,658.00
2023-03-06T06:31:05.870Z,665.00
2023-03-06T06:32:05.948Z,658.00
2023-03-06T06:33:06.012Z,680.00
2023-03-06T06:34:06.101Z,725.00
2023-03-06T06:35:06.160Z,668.00
2023-03-06T06:36:06.236Z,651.00
2023-03-06T06:37:06.291Z,641.00
2023-03-06T06:38:06.351Z,639.00
2023-03-06T06:39:06.422Z,637.00
2023-03-06T06:40:07.381Z,641.00
2023-03-06T06:41:35.707Z,645.00
2023-03-06T06:42:28.601Z,645.00
2023-03-06T06:43:07.610Z,645.00
2023-03-06T06:44:08.230Z,646.00
2023-03-06T06:45:06.632Z,646.00
2023-03-06T06:46:36.382Z,653.00
2023-03-06T06:47:25.119Z,645.00
2023-03-06T06:48:07.789Z,645.00
2023-03-06T06:49:06.772Z,647.00
2023-03-06T06:50:06.755Z,646.00
2023-03-06T06:51:06.771Z,645.00
2023-03-06T07:20:07.767Z,638.00
2023-03-06T07:21:07.776Z,647.00
2023-03-06T07:22:08.472Z,639.00
2023-03-06T07:24:08.058Z,641.00
2023-03-06T07:25:08.093Z,645.00
2023-03-06T07:26:08.976Z,653.00
2023-03-06T07:27:08.148Z,662.00
2023-03-06T07:28:08.257Z,666.00
2023-03-06T07:29:08.243Z,672.00
2023-03-06T07:30:08.219Z,672.00
2023-03-06T07:36:10.300Z,696.00
2023-03-06T07:37:08.397Z,723.00
2023-03-06T07:38:08.421Z,717.00
2023-03-06T07:39:08.458Z,723.00
2023-03-06T07:40:08.475Z,713.00
2023-03-06T07:41:09.413Z,720.00
2023-03-06T07:42:08.524Z,708.00
2023-03-06T07:43:18.779Z,718.00
2023-03-06T07:44:09.609Z,718.00
2023-03-06T07:45:08.615Z,708.00
2023-03-06T07:46:08.830Z,711.00
2023-03-06T07:47:08.669Z,690.00
2023-03-06T07:48:08.684Z,729.00
2023-03-06T07:49:08.722Z,723.00
2023-03-06T07:50:08.754Z,711.00
2023-03-06T07:51:08.788Z,721.00
2023-03-06T07:52:08.832Z,695.00
2023-03-06T07:53:10.152Z,702.00
2023-03-06T07:54:08.887Z,700.00
2023-03-06T07:55:08.946Z,694.00
2023-03-06T07:56:09.998Z,710.00
2023-03-06T07:57:09.078Z,699.00
2023-03-06T07:58:09.152Z,692.00
2023-03-06T07:59:09.222Z,689.00
2023-03-06T08:00:09.317Z,689.00
2023-03-06T08:01:09.356Z,696.00
2023-03-06T08:02:09.431Z,698.00
2023-03-06T08:03:09.544Z,675.00
2023-03-06T08:04:09.584Z,677.00
2023-03-06T08:05:09.668Z,694.00
2023-03-06T08:06:09.702Z,707.00
2023-03-06T08:07:09.771Z,708.00
2023-03-06T08:08:09.855Z,702.00
2023-03-06T08:09:10.504Z,694.00
2023-03-06T08:10:09.998Z,680.00
2023-03-06T08:11:10.082Z,669.00
2023-03-06T08:12:10.143Z,696.00
2023-03-06T08:13:10.210Z,676.00
2023-03-06T08:14:10.276Z,710.00
2023-03-06T08:15:10.350Z,705.00
2023-03-06T08:16:10.732Z,726.00
2023-03-06T08:17:10.521Z,719.00
2023-03-06T08:18:10.582Z,719.00
2023-03-06T08:19:10.660Z,744.00
2023-03-06T08:20:10.749Z,746.00
2023-03-06T08:21:10.825Z,757.00
2023-03-06T08:22:10.905Z,756.00
2023-03-06T08:23:11.004Z,781.00
2023-03-06T08:24:11.048Z,804.00
2023-03-06T08:25:11.119Z,807.00
2023-03-06T08:26:11.188Z,791.00
2023-03-06T08:27:11.247Z,775.00
2023-03-06T08:28:11.316Z,783.00
2023-03-06T08:29:11.390Z,786.00
2023-03-06T08:30:11.446Z,764.00
2023-03-06T08:31:11.554Z,773.00
2023-03-06T08:32:11.617Z,757.00
2023-03-06T08:33:11.658Z,750.00
2023-03-06T08:34:11.724Z,735.00
2023-03-06T08:35:11.793Z,747.00
2023-03-06T08:36:11.861Z,774.00
2023-03-06T08:37:12.025Z,766.00
2023-03-06T08:38:11.996Z,760.00
2023-03-06T08:39:12.065Z,749.00
2023-03-06T08:40:12.142Z,743.00
2023-03-06T08:41:12.208Z,759.00
2023-03-06T08:42:12.278Z,769.00
2023-03-06T08:43:14.075Z,768.00
2023-03-06T08:44:12.425Z,777.00
2023-03-06T08:45:12.485Z,767.00
2023-03-06T08:46:12.568Z,779.00
2023-03-06T08:47:12.637Z,793.00
2023-03-06T08:48:12.730Z,774.00
2023-03-06T08:49:12.782Z,767.00
2023-03-06T08:50:12.851Z,771.00
2023-03-06T08:51:12.908Z,758.00
2023-03-06T08:52:13.098Z,763.00
2023-03-06T08:53:13.062Z,780.00
2023-03-06T08:54:13.125Z,770.00
2023-03-06T08:55:15.040Z,793.00
2023-03-06T08:56:13.250Z,771.00
2023-03-06T08:57:13.331Z,795.00
2023-03-06T08:58:13.395Z,760.00
2023-03-06T08:59:13.476Z,790.00
2023-03-06T09:00:13.531Z,786.00
2023-03-06T09:01:13.688Z,784.00
2023-03-06T09:02:13.692Z,764.00
2023-03-06T09:03:13.725Z,780.00
2023-03-06T09:04:13.799Z,773.00
2023-03-06T09:05:13.864Z,761.00
2023-03-06T09:06:14.047Z,757.00
2023-03-06T09:07:14.006Z,774.00
2023-03-06T09:08:14.185Z,770.00
2023-03-06T09:09:14.139Z,766.00
2023-03-06T09:10:14.264Z,785.00
2023-03-06T09:11:14.294Z,775.00
2023-03-06T09:12:14.368Z,785.00
2023-03-06T09:13:14.458Z,769.00
2023-03-06T09:15:14.627Z,795.00
2023-03-06T09:41:16.613Z,1054.00
2023-03-06T09:42:16.601Z,1084.00
2023-03-06T09:43:16.671Z,1109.00
2023-03-06T09:44:16.730Z,1088.00
2023-03-06T09:45:16.807Z,1085.00
2023-03-06T09:46:16.921Z,1096.00
2023-03-06T09:47:16.953Z,1106.00
2023-03-06T09:48:17.008Z,1108.00
2023-03-06T09:49:17.077Z,1101.00
2023-03-06T09:50:17.143Z,1132.00
2023-03-06T09:51:17.247Z,1112.00
2023-03-06T09:52:17.270Z,1140.00
2023-03-06T09:53:17.335Z,1148.00
2023-03-06T09:54:17.401Z,1151.00
2023-03-06T09:55:17.486Z,1163.00
2023-03-06T09:56:17.536Z,1152.00
2023-03-06T09:57:17.591Z,1128.00
2023-03-06T10:15:18.695Z,1204.00
2023-03-06T10:23:19.286Z,1398.00
2023-03-06T10:30:19.795Z,857.00
2023-03-06T10:31:19.904Z,944.00
2023-03-06T10:32:19.979Z,1041.00
2023-03-06T10:33:19.984Z,1115.00
2023-03-06T10:34:20.051Z,1165.00
2023-03-06T10:36:20.137Z,1230.00
2023-03-06T10:37:20.987Z,1203.00
2023-03-06T10:38:20.181Z,1238.00
2023-03-06T10:39:20.184Z,1240.00
2023-03-06T10:40:20.351Z,1229.00
2023-03-06T10:41:20.226Z,1200.00
2023-03-06T10:42:20.245Z,1226.00
2023-03-06T10:44:20.287Z,1205.00
2023-03-06T10:45:20.308Z,1202.00
2023-03-06T10:46:20.396Z,1210.00
2023-03-06T10:47:20.353Z,1239.00
2023-03-06T10:48:20.388Z,1246.00
2023-03-06T10:49:20.400Z,1258.00
2023-03-06T10:50:20.461Z,1261.00
2023-03-06T10:51:20.439Z,1273.00
2023-03-06T10:52:21.077Z,1270.00
2023-03-06T10:53:20.474Z,1278.00
2023-03-06T10:54:20.514Z,1286.00
2023-03-06T10:55:20.511Z,1290.00
2023-03-06T10:56:20.552Z,1301.00
2023-03-06T10:57:20.556Z,1266.00
2023-03-06T10:58:20.582Z,1269.00
2023-03-06T10:59:20.613Z,1253.00
2023-03-06T11:00:20.753Z,1248.00
2023-03-06T11:01:20.778Z,1257.00
2023-03-06T11:02:20.662Z,1280.00
2023-03-06T11:03:20.683Z,1306.00
2023-03-06T11:04:20.766Z,1284.00
2023-03-06T11:05:21.582Z,1284.00
2023-03-06T11:06:20.755Z,1274.00
2023-03-06T11:07:20.783Z,1276.00
2023-03-06T11:08:20.802Z,1309.00
2023-03-06T11:09:20.831Z,1332.00
2023-03-06T11:10:20.861Z,1387.00
2023-03-06T11:11:36.474Z,1406.00
2023-03-06T11:13:20.940Z,1417.00
2023-03-06T11:14:20.967Z,1443.00
2023-03-06T11:15:21.032Z,1483.00
2023-03-06T11:16:21.062Z,1544.00
2023-03-06T11:17:21.048Z,1598.00
2023-03-06T11:18:21.076Z,1621.00
2023-03-06T11:19:24.085Z,1632.00
2023-03-06T11:20:21.124Z,1659.00
2023-03-06T11:21:21.149Z,1668.00
2023-03-06T11:22:21.206Z,1680.00
2023-03-06T11:23:21.186Z,1706.00
2023-03-06T11:24:21.188Z,1683.00
2023-03-06T11:25:21.216Z,1646.00
2023-03-06T11:26:21.223Z,1646.00
2023-03-06T11:27:21.235Z,1613.00
2023-03-06T11:28:21.257Z,1625.00
2023-03-06T11:29:21.324Z,1622.00
2023-03-06T11:30:21.323Z,1619.00
2023-03-06T11:31:21.412Z,1603.00
2023-03-06T11:32:21.393Z,1589.00
2023-03-06T11:33:21.354Z,1586.00
2023-03-06T11:34:21.363Z,1576.00
2023-03-06T11:36:21.417Z,1557.00
2023-03-06T11:37:21.423Z,1546.00
2023-03-06T11:38:21.509Z,1552.00
2023-03-06T11:39:21.468Z,1517.00
2023-03-06T11:40:21.488Z,1539.00
2023-03-06T11:41:21.516Z,1525.00
2023-03-06T11:42:21.519Z,1521.00
2023-03-06T11:43:21.561Z,1519.00
2023-03-06T11:44:21.566Z,1522.00
2023-03-06T11:45:21.585Z,1506.00
2023-03-06T11:46:21.699Z,1499.00
2023-03-06T11:47:21.636Z,1494.00
2023-03-06T11:48:21.662Z,1475.00
2023-03-06T11:49:21.677Z,1475.00
2023-03-06T11:50:21.699Z,1472.00
2023-03-06T11:52:21.745Z,1462.00
2023-03-06T11:54:21.795Z,1463.00
2023-03-06T11:55:21.810Z,1464.00
2023-03-06T11:56:21.833Z,1467.00
2023-03-06T11:57:21.858Z,1474.00
2023-03-06T11:58:21.880Z,1483.00
2023-03-06T12:00:22.001Z,1513.00
2023-03-06T12:01:22.076Z,1536.00
2023-03-06T12:02:22.188Z,1557.00
2023-03-06T12:03:22.242Z,1578.00
2023-03-06T12:04:22.317Z,1609.00
2023-03-06T12:05:22.449Z,1642.00
2023-03-06T12:06:22.478Z,1668.00
2023-03-06T12:07:22.574Z,1699.00
2023-03-06T12:08:22.657Z,1719.00
2023-03-06T12:09:22.728Z,1760.00
2023-03-06T12:10:22.807Z,1789.00
2023-03-06T12:11:22.879Z,1811.00
2023-03-06T12:12:22.967Z,1813.00
2023-03-06T12:14:23.027Z,1780.00
2023-03-06T12:15:23.083Z,1767.00
2023-03-06T12:16:23.178Z,1790.00
2023-03-06T12:17:23.206Z,1764.00
2023-03-06T12:18:23.280Z,1758.00
2023-03-06T12:19:23.342Z,1724.00
2023-03-06T12:20:23.400Z,1712.00
2023-03-06T12:21:23.512Z,1715.00
2023-03-06T12:22:23.534Z,1691.00
2023-03-06T12:23:23.604Z,1667.00
2023-03-06T12:24:23.668Z,1651.00
2023-03-06T12:25:23.729Z,1657.00
2023-03-06T12:26:24.650Z,1662.00
2023-03-06T12:27:23.849Z,1686.00
2023-03-06T12:28:24.613Z,1709.00
2023-03-06T12:29:24.002Z,1719.00
2023-03-06T12:30:24.070Z,1758.00
2023-03-06T12:31:24.133Z,1727.00
2023-03-06T12:32:24.251Z,1746.00
2023-03-06T12:33:24.260Z,1770.00
2023-03-06T12:34:24.321Z,1767.00
2023-03-06T12:35:24.424Z,1788.00
2023-03-06T12:36:24.452Z,1698.00
2023-03-06T12:37:24.507Z,1548.00
2023-03-06T12:38:24.576Z,1616.00
2023-03-06T12:39:24.642Z,1560.00
2023-03-06T12:40:24.715Z,1525.00
2023-03-06T12:41:24.757Z,1554.00
2023-03-06T12:42:24.820Z,1526.00
2023-03-06T12:43:24.895Z,1417.00
2023-03-06T12:44:24.946Z,1450.00
2023-03-06T12:45:25.025Z,1508.00
2023-03-06T12:46:25.097Z,1486.00
2023-03-06T12:47:25.136Z,1517.00
2023-03-06T12:48:25.203Z,1553.00
2023-03-06T12:49:31.907Z,1565.00
2023-03-06T12:50:26.273Z,1526.00
2023-03-06T12:51:25.297Z,1552.00
2023-03-06T12:52:30.344Z,1500.00
2023-03-06T12:53:26.343Z,1446.00
2023-03-06T12:54:25.357Z,1361.00
2023-03-06T12:55:26.071Z,1320.00
2023-03-06T12:56:25.375Z,1303.00
2023-03-06T12:57:25.396Z,1341.00
2023-03-06T12:58:25.419Z,1318.00
2023-03-06T12:59:25.425Z,1372.00
2023-03-06T13:00:25.476Z,1438.00
2023-03-06T13:01:25.525Z,1422.00
2023-03-06T13:02:25.529Z,1389.00
2023-03-06T15:12:33.336Z,1578.00
2023-03-06T15:13:33.409Z,1588.00
2023-03-06T15:14:33.481Z,1590.00
2023-03-06T15:15:33.572Z,1580.00
2023-03-06T15:16:33.718Z,1575.00
2023-03-06T15:17:33.684Z,1569.00
2023-03-06T15:18:33.754Z,1571.00
2023-03-06T15:19:33.821Z,1570.00
2023-03-06T15:20:33.882Z,1547.00
2023-03-06T15:21:33.954Z,1535.00
2023-03-06T15:22:34.012Z,1535.00
2023-03-06T15:23:34.113Z,1539.00
2023-03-06T15:24:34.152Z,1526.00
2023-03-06T15:25:34.206Z,1531.00
2023-03-06T15:26:34.272Z,1528.00
2023-03-06T15:27:34.342Z,1516.00
2023-03-06T15:28:34.411Z,1521.00
2023-03-06T15:29:34.473Z,1511.00
2023-03-06T15:30:34.539Z,1510.00
2023-03-06T15:31:34.636Z,1501.00
2023-03-06T15:32:34.751Z,1525.00
2023-03-06T15:33:34.732Z,1495.00
2023-03-06T15:34:34.793Z,1499.00
2023-03-06T15:35:37.337Z,1486.00
2023-03-06T15:36:34.859Z,1509.00
2023-03-06T15:37:34.893Z,1488.00
2023-03-06T15:38:34.909Z,1503.00
2023-03-06T15:39:34.955Z,1500.00
2023-03-06T15:40:34.941Z,1500.00
2023-03-06T15:41:34.961Z,1493.00
2023-03-06T15:42:34.971Z,1495.00
2023-03-06T15:43:34.993Z,1431.00
2023-03-06T15:44:35.014Z,1388.00
2023-03-06T15:45:35.083Z,1416.00
2023-03-06T15:46:35.051Z,1435.00
2023-03-06T15:47:35.073Z,1440.00
2023-03-06T15:48:35.095Z,1452.00
2023-03-06T15:49:35.120Z,1463.00
2023-03-06T15:50:35.146Z,1453.00
2023-03-06T15:51:35.176Z,1461.00
2023-03-06T15:52:35.206Z,1443.00
2023-03-06T15:53:35.222Z,1456.00
2023-03-06T15:54:35.249Z,1448.00
2023-03-06T15:55:35.275Z,1456.00
2023-03-06T15:56:35.308Z,1451.00
2023-03-06T15:57:35.319Z,1442.00
2023-03-06T15:58:35.343Z,1442.00
2023-03-06T15:59:35.369Z,1437.00
2023-03-06T16:00:35.400Z,1426.00
2023-03-06T16:02:35.441Z,1413.00
2023-03-06T16:03:35.495Z,1418.00
2023-03-06T16:04:35.590Z,1427.00
2023-03-06T16:05:35.696Z,1425.00
2023-03-06T16:06:35.568Z,1418.00
2023-03-06T16:07:35.599Z,1418.00
2023-03-06T16:08:35.624Z,1414.00
2023-03-06T16:09:35.654Z,1423.00
2023-03-06T16:10:35.681Z,1401.00
2023-03-06T16:11:43.746Z,1412.00
2023-03-06T16:12:36.743Z,1413.00
2023-03-06T16:13:35.759Z,1414.00
2023-03-06T16:14:35.791Z,1417.00
2023-03-06T16:15:35.893Z,1413.00
2023-03-06T16:16:35.873Z,1410.00
2023-03-06T16:17:35.888Z,1423.00
2023-03-06T16:18:35.916Z,1406.00
2023-03-06T16:19:35.941Z,1397.00
2023-03-06T16:20:35.971Z,1390.00
2023-03-06T16:21:36.009Z,1395.00
2023-03-06T16:22:36.035Z,1420.00
2023-03-06T16:23:36.077Z,1406.00
2023-03-06T16:24:36.113Z,1392.00
2023-03-06T16:25:36.142Z,1401.00
2023-03-06T16:26:36.219Z,1387.00
2023-03-06T16:28:36.395Z,1378.00
2023-03-06T16:29:36.441Z,1371.00
2023-03-06T16:30:36.549Z,1365.00
2023-03-06T16:31:36.588Z,1403.00
2023-03-06T16:32:36.681Z,1371.00
2023-03-06T16:33:36.734Z,1367.00
2023-03-06T16:34:36.827Z,1371.00
2023-03-06T16:35:36.933Z,1360.00
2023-03-06T16:36:36.940Z,1365.00
2023-03-06T16:37:37.005Z,1361.00
2023-03-06T16:38:37.076Z,1365.00
2023-03-06T16:39:37.144Z,1364.00
2023-03-06T18:05:43.281Z,1257.00
2023-03-06T18:06:43.357Z,1272.00
2023-03-06T18:07:43.420Z,1254.00
2023-03-06T18:08:43.492Z,1266.00
2023-03-06T18:09:43.574Z,1300.00
2023-03-06T18:10:43.654Z,1292.00
2023-03-06T18:11:43.708Z,1269.00
2023-03-06T18:12:43.767Z,1265.00
2023-03-06T18:13:43.834Z,1273.00
2023-03-06T18:14:43.885Z,1278.00
2023-03-06T18:15:43.969Z,1270.00
2023-03-06T18:16:44.033Z,1282.00
2023-03-06T18:17:44.101Z,1270.00
2023-03-06T18:18:44.178Z,1262.00
2023-03-06T18:19:44.260Z,1270.00
2023-03-06T18:20:46.927Z,1273.00
2023-03-06T18:21:44.333Z,1273.00
2023-03-06T18:22:44.360Z,1275.00
2023-03-06T18:23:44.383Z,1278.00
2023-03-06T18:24:44.398Z,1262.00
2023-03-06T18:33:44.599Z,1256.00
2023-03-06T18:34:44.632Z,1251.00
2023-03-06T18:35:44.684Z,1254.00
2023-03-06T18:36:44.684Z,1242.00
2023-03-06T18:37:44.702Z,1261.00
2023-03-06T18:38:44.735Z,1241.00
2023-03-06T18:39:44.763Z,1240.00
2023-03-06T18:40:44.783Z,1261.00
2023-03-06T18:41:44.877Z,1238.00
2023-03-06T18:42:44.819Z,1255.00
2023-03-06T18:43:44.857Z,1243.00
2023-03-06T18:44:44.875Z,1237.00
2023-03-06T18:45:44.916Z,1236.00
2023-03-06T18:46:44.933Z,1232.00
2023-03-06T18:47:44.953Z,1246.00
2023-03-06T18:48:44.966Z,1228.00
2023-03-06T18:49:44.995Z,1232.00
2023-03-06T18:50:45.020Z,1223.00
2023-03-06T18:51:45.033Z,1232.00
2023-03-06T18:52:45.057Z,1216.00
2023-03-06T18:53:45.092Z,1224.00
2023-03-06T18:54:45.121Z,1228.00
2023-03-06T21:02:53.280Z,1024.00
2023-03-06T21:03:53.371Z,1006.00
2023-03-06T21:04:53.502Z,1009.00
2023-03-06T21:05:53.510Z,1004.00
2023-03-06T21:06:53.583Z,995.00
2023-03-06T21:07:53.659Z,1015.00
2023-03-06T21:08:53.732Z,987.00
2023-03-06T21:09:53.916Z,1006.00
2023-03-06T21:10:53.891Z,990.00
2023-03-06T21:11:53.952Z,989.00
2023-03-06T21:12:54.033Z,975.00
2023-03-06T21:13:54.118Z,981.00
2023-03-06T21:14:54.181Z,986.00
2023-03-06T21:15:54.303Z,973.00
2023-03-06T21:16:54.336Z,974.00
2023-03-06T21:17:54.427Z,978.00
2023-03-06T21:18:54.504Z,1004.00
2023-03-06T21:19:54.586Z,980.00
2023-03-06T21:20:54.653Z,966.00
2023-03-06T21:21:54.730Z,978.00
2023-03-06T21:22:54.806Z,967.00
2023-03-06T21:23:54.893Z,960.00
2023-03-06T21:24:54.960Z,955.00
2023-03-06T21:25:55.052Z,986.00
2023-03-06T21:26:55.106Z,952.00
2023-03-06T21:27:55.185Z,960.00
2023-03-06T21:28:55.256Z,959.00
2023-03-06T21:29:55.324Z,964.00
2023-03-06T21:30:55.432Z,940.00
2023-03-06T21:31:56.208Z,970.00
2023-03-06T21:32:55.561Z,953.00
2023-03-06T21:33:55.642Z,945.00
2023-03-06T21:34:55.712Z,950.00
2023-03-06T23:17:03.310Z,790.00
2023-03-06T23:18:03.374Z,772.00
2023-03-06T23:19:03.440Z,789.00
2023-03-06T23:20:03.525Z,784.00
2023-03-06T23:21:03.592Z,773.00
2023-03-06T23:22:03.663Z,788.00
2023-03-06T23:23:03.744Z,763.00
2023-03-06T23:24:03.815Z,766.00
2023-03-06T23:25:03.877Z,783.00
2023-03-06T23:26:03.964Z,770.00
